createdAt,value
2023-04-22T00:00:08.830Z,81.10
2023-04-22T00:02:36.002Z,83.10
2023-04-22T00:05:03.346Z,82.70
2023-04-22T00:07:32.005Z,83.30
2023-04-22T00:09:59.060Z,83.90
2023-04-22T00:12:26.064Z,83.40
2023-04-22T00:14:52.963Z,83.70
2023-04-22T00:17:19.949Z,84.00
2023-04-22T00:19:46.872Z,84.20
2023-04-22T00:22:13.683Z,84.40
2023-04-22T00:24:42.119Z,84.50
2023-04-22T00:27:09.004Z,84.60
2023-04-22T00:29:36.247Z,84.60
2023-04-22T00:32:03.420Z,84.70
2023-04-22T00:34:30.285Z,84.70
2023-04-22T00:36:57.228Z,85.40
2023-04-22T00:39:24.071Z,86.00
2023-04-22T00:41:52.630Z,85.50
2023-04-22T00:44:19.679Z,85.20
2023-04-22T00:46:46.841Z,85.30
2023-04-22T00:49:14.833Z,85.40
2023-04-22T00:51:41.685Z,85.60
2023-04-22T00:54:08.529Z,86.50
2023-04-22T00:56:38.056Z,85.90
2023-04-22T00:59:07.257Z,85.90
2023-04-22T01:01:34.706Z,86.00
2023-04-22T01:04:03.287Z,86.30
2023-04-22T01:06:30.734Z,86.50
2023-04-22T01:08:58.171Z,86.90
2023-04-22T01:11:25.126Z,86.80
2023-04-22T01:13:52.207Z,87.00
2023-04-22T01:16:21.498Z,87.50
2023-04-22T01:18:48.563Z,88.30
2023-04-22T01:21:15.395Z,87.90
2023-04-22T01:23:43.904Z,89.10
2023-04-22T01:26:10.857Z,88.30
2023-04-22T01:28:37.922Z,88.40
2023-04-22T01:31:05.017Z,88.60
2023-04-22T01:33:32.140Z,89.10
2023-04-22T01:35:58.994Z,89.20
2023-04-22T01:38:26.058Z,89.80
2023-04-22T01:40:54.497Z,90.00
2023-04-22T01:43:21.629Z,90.20
2023-04-22T01:45:48.471Z,90.40
2023-04-22T01:48:15.434Z,90.70
2023-04-22T01:50:42.461Z,90.70
2023-04-22T01:53:09.750Z,91.00
2023-04-22T01:55:37.758Z,91.20
2023-04-22T01:58:06.002Z,91.40
2023-04-22T02:00:33.139Z,91.50
2023-04-22T02:03:00.112Z,91.80
2023-04-22T02:05:28.188Z,92.10
2023-04-22T02:07:55.211Z,92.30
2023-04-22T02:10:22.048Z,92.40
2023-04-22T02:12:51.698Z,92.70
2023-04-22T02:15:19.989Z,92.80
2023-04-22T02:17:46.759Z,93.20
2023-04-22T02:20:13.613Z,93.60
2023-04-22T02:22:41.997Z,93.90
2023-04-22T02:25:10.066Z,93.90
2023-04-22T02:27:36.867Z,94.10
2023-04-22T02:30:04.618Z,94.20
2023-04-22T02:32:32.879Z,94.60
2023-04-22T02:34:59.699Z,94.80
2023-04-22T02:37:26.592Z,95.10
2023-04-22T02:39:53.424Z,95.30
2023-04-22T02:42:20.264Z,95.60
2023-04-22T02:44:47.122Z,95.70
2023-04-22T02:47:13.894Z,96.00
2023-04-22T02:49:42.431Z,96.20
2023-04-22T02:52:09.364Z,96.50
2023-04-22T02:54:36.311Z,97.00
2023-04-22T02:57:03.277Z,97.50
2023-04-22T02:59:31.449Z,97.60
2023-04-22T03:01:58.385Z,98.00
2023-04-22T03:04:25.683Z,98.60
2023-04-22T03:06:54.117Z,98.90
2023-04-22T03:09:21.015Z,99.50
2023-04-22T03:11:48.161Z,99.90
2023-04-22T03:14:14.903Z,99.90
2023-04-22T03:16:41.856Z,99.90
2023-04-22T03:19:08.815Z,99.90
2023-04-22T03:21:35.712Z,99.90
2023-04-22T03:24:04.210Z,99.90
2023-04-22T03:26:37.556Z,99.90
2023-04-22T03:29:04.347Z,99.90
2023-04-22T03:31:31.290Z,99.90
2023-04-22T03:33:58.224Z,99.90
2023-04-22T03:36:25.067Z,99.90
2023-04-22T03:38:51.925Z,99.90
2023-04-22T03:41:20.124Z,99.90
2023-04-22T03:43:46.909Z,99.90
2023-04-22T03:46:13.731Z,99.90
2023-04-22T03:48:40.566Z,99.90
2023-04-22T03:51:07.420Z,99.90
2023-04-22T03:53:34.238Z,99.90
2023-04-22T03:56:01.236Z,99.90
2023-04-22T03:58:29.420Z,99.90
2023-04-22T04:00:58.424Z,99.90
2023-04-22T04:03:26.568Z,99.90
2023-04-22T04:05:54.917Z,99.90
2023-04-22T04:08:21.807Z,99.90
2023-04-22T04:10:48.764Z,99.90
2023-04-22T04:13:15.659Z,99.90
2023-04-22T04:15:44.094Z,99.90
2023-04-22T04:18:10.989Z,99.90
2023-04-22T04:20:37.867Z,99.90
2023-04-22T04:23:04.752Z,99.90
2023-04-22T04:25:31.724Z,99.90
2023-04-22T04:27:58.504Z,99.90
2023-04-22T04:30:25.649Z,99.90
2023-04-22T04:32:54.194Z,99.90
2023-04-22T04:35:21.273Z,99.90
2023-04-22T04:37:48.154Z,99.90
2023-04-22T04:40:14.991Z,99.90
2023-04-22T04:42:41.803Z,99.90
2023-04-22T04:45:09.111Z,99.90
2023-04-22T04:47:36.021Z,99.90
2023-04-22T04:50:04.841Z,99.90
2023-04-22T04:52:32.002Z,99.90
2023-04-22T04:54:59.995Z,99.90
2023-04-22T05:00:13.003Z,99.90
2023-04-22T05:02:41.845Z,99.90
2023-04-22T05:05:16.436Z,99.90
2023-04-22T05:10:25.177Z,99.90
2023-04-22T05:12:53.219Z,99.90
2023-04-22T05:15:25.986Z,99.90
2023-04-22T05:20:40.274Z,99.90
2023-04-22T05:23:07.964Z,99.90
2023-04-22T05:25:39.835Z,99.90
2023-04-22T05:28:10.814Z,99.90
2023-04-22T05:33:19.153Z,99.90
2023-04-22T05:35:49.136Z,99.90
2023-04-22T05:38:16.768Z,99.90
2023-04-22T05:40:52.497Z,99.90
2023-04-22T05:43:20.534Z,99.30
2023-04-22T05:45:56.594Z,99.00
2023-04-22T05:48:25.687Z,98.20
2023-04-22T05:51:00.113Z,97.70
2023-04-22T05:53:28.221Z,97.10
2023-04-22T05:55:57.312Z,96.50
2023-04-22T05:58:24.790Z,95.90
2023-04-22T06:00:52.442Z,95.00
2023-04-22T06:03:20.689Z,94.00
2023-04-22T06:13:56.542Z,94.50
2023-04-22T06:16:24.584Z,94.50
2023-04-22T06:18:52.300Z,93.40
2023-04-22T06:21:20.099Z,93.20
2023-04-22T06:26:34.289Z,91.70
2023-04-22T06:29:07.320Z,90.90
2023-04-22T06:31:36.387Z,90.20
2023-04-22T07:04:47.492Z,79.20
2023-04-22T07:07:14.828Z,79.10
2023-04-22T07:09:48.684Z,78.50
2023-04-22T07:15:00.811Z,75.90
2023-04-22T07:17:37.888Z,75.70
2023-04-22T07:20:07.165Z,75.40
2023-04-22T07:22:37.443Z,75.10
2023-04-22T07:30:37.864Z,73.60
2023-04-22T07:35:51.807Z,72.60
2023-04-22T07:38:19.769Z,71.20
2023-04-22T07:40:49.004Z,71.10
2023-04-22T07:48:55.149Z,70.70
2023-04-22T07:56:53.125Z,68.50
2023-04-22T07:59:32.658Z,68.80
2023-04-22T08:04:48.437Z,68.10
2023-04-22T08:12:32.571Z,67.10
2023-04-22T08:15:01.921Z,66.80
2023-04-22T08:17:39.048Z,66.00
2023-04-22T08:25:32.640Z,64.10
2023-04-22T08:27:59.450Z,63.40
2023-04-22T08:30:26.264Z,62.10
2023-04-22T08:32:53.089Z,61.50
2023-04-22T08:35:21.225Z,59.50
2023-04-22T08:37:48.028Z,59.60
2023-04-22T08:40:14.981Z,60.10
2023-04-22T08:42:43.699Z,59.00
2023-04-22T08:45:11.075Z,59.20
2023-04-22T08:47:38.916Z,58.80
2023-04-22T08:50:07.040Z,58.00
2023-04-22T08:52:35.479Z,56.70
2023-04-22T08:55:02.268Z,56.00
2023-04-22T08:57:29.537Z,55.40
2023-04-22T08:59:56.768Z,54.30
2023-04-22T09:02:24.600Z,54.10
2023-04-22T09:04:53.026Z,53.70
2023-04-22T09:07:24.072Z,52.30
2023-04-22T09:09:53.094Z,52.10
2023-04-22T09:12:19.881Z,52.50
2023-04-22T09:14:46.696Z,52.10
2023-04-22T09:17:16.023Z,52.70
2023-04-22T09:19:42.923Z,53.00
2023-04-22T09:22:10.671Z,52.30
2023-04-22T09:24:37.533Z,51.80
2023-04-22T09:27:05.964Z,51.60
2023-04-22T09:29:32.772Z,51.40
2023-04-22T09:32:00.408Z,51.00
2023-04-22T09:34:27.699Z,51.30
2023-04-22T09:36:54.447Z,50.80
2023-04-22T09:39:23.248Z,50.60
2023-04-22T09:41:54.996Z,50.20
2023-04-22T09:44:27.195Z,50.30
2023-04-22T09:46:54.537Z,49.40
2023-04-22T09:49:21.421Z,48.10
2023-04-22T09:51:49.890Z,48.30
2023-04-22T09:54:16.757Z,49.10
2023-04-22T09:56:48.072Z,49.10
2023-04-22T09:59:15.976Z,49.00
2023-04-22T10:01:44.209Z,48.70
2023-04-22T10:04:11.272Z,48.00
2023-04-22T10:06:38.254Z,48.30
2023-04-22T10:09:06.488Z,48.20
2023-04-22T10:11:34.631Z,48.50
2023-04-22T10:14:01.409Z,48.70
2023-04-22T10:16:31.379Z,48.30
2023-04-22T10:19:02.848Z,48.00
2023-04-22T10:21:31.449Z,48.50
2023-04-22T10:23:59.713Z,48.40
2023-04-22T10:26:40.330Z,48.50
2023-04-22T10:29:08.006Z,48.30
2023-04-22T10:31:37.251Z,47.90
2023-04-22T10:34:12.928Z,48.00
2023-04-22T10:37:00.185Z,48.50
2023-04-22T10:39:28.530Z,49.10
2023-04-22T10:42:07.578Z,49.80
2023-04-22T10:44:47.004Z,49.60
2023-04-22T10:47:28.335Z,49.40
2023-04-22T10:50:17.420Z,49.10
2023-04-22T10:52:49.459Z,49.30
2023-04-22T10:55:17.051Z,49.00
2023-04-22T10:57:45.488Z,48.30
2023-04-22T11:00:31.001Z,48.70
2023-04-22T11:03:13.914Z,48.90
2023-04-22T11:05:43.036Z,48.90
2023-04-22T11:08:18.978Z,48.60
2023-04-22T11:10:47.477Z,48.00
2023-04-22T11:13:16.536Z,47.90
2023-04-22T11:15:44.988Z,47.50
2023-04-22T11:18:20.739Z,47.20
2023-04-22T11:20:50.542Z,46.80
2023-04-22T11:23:23.093Z,46.40
2023-04-22T11:25:56.504Z,46.70
2023-04-22T11:28:23.790Z,46.90
2023-04-22T11:30:51.243Z,46.20
2023-04-22T11:33:19.631Z,46.00
2023-04-22T11:35:51.190Z,45.10
2023-04-22T11:38:18.332Z,44.50
2023-04-22T11:40:47.236Z,43.90
2023-04-22T11:43:16.923Z,43.40
2023-04-22T11:45:44.519Z,43.00
2023-04-22T11:48:12.044Z,42.70
2023-04-22T11:50:41.285Z,41.70
2023-04-22T11:53:16.450Z,41.60
2023-04-22T11:55:44.229Z,40.80
2023-04-22T11:58:13.761Z,40.80
2023-04-22T12:00:42.992Z,41.00
2023-04-22T12:03:15.431Z,41.30
2023-04-22T12:05:44.390Z,40.40
2023-04-22T12:08:14.953Z,39.90
2023-04-22T12:10:44.024Z,39.60
2023-04-22T12:13:17.594Z,39.20
2023-04-22T12:15:44.812Z,39.40
2023-04-22T12:18:11.713Z,39.50
2023-04-22T12:20:39.482Z,38.90
2023-04-22T12:23:11.454Z,39.10
2023-04-22T12:25:39.729Z,39.20
2023-04-22T12:28:06.536Z,38.20
2023-04-22T12:30:33.432Z,38.00
2023-04-22T12:33:00.253Z,37.90
2023-04-22T12:35:27.240Z,37.50
2023-04-22T12:37:54.134Z,37.70
2023-04-22T12:40:21.121Z,38.00
2023-04-22T12:42:49.501Z,37.80
2023-04-22T12:45:16.471Z,37.30
2023-04-22T12:47:43.462Z,36.10
2023-04-22T12:50:10.527Z,35.30
2023-04-22T12:52:37.495Z,34.70
2023-04-22T12:55:05.751Z,34.70
2023-04-22T12:57:33.108Z,34.60
2023-04-22T13:00:01.781Z,34.10
2023-04-22T13:02:28.728Z,33.40
2023-04-22T13:04:55.631Z,32.00
2023-04-22T13:07:22.482Z,31.10
2023-04-22T13:09:49.388Z,29.90
2023-04-22T13:12:16.349Z,29.50
2023-04-22T13:14:43.323Z,29.20
2023-04-22T13:17:11.645Z,28.80
2023-04-22T13:19:38.809Z,28.30
2023-04-22T13:22:05.996Z,27.80
2023-04-22T13:24:32.873Z,27.90
2023-04-22T13:26:59.869Z,27.80
2023-04-22T13:29:26.969Z,27.70
2023-04-22T13:31:53.962Z,27.40
2023-04-22T13:34:22.138Z,27.40
2023-04-22T13:36:49.066Z,27.50
2023-04-22T13:39:15.941Z,27.30
2023-04-22T13:41:43.125Z,27.40
2023-04-22T13:44:11.414Z,27.30
2023-04-22T13:46:38.493Z,27.30
2023-04-22T13:49:05.731Z,27.80
2023-04-22T13:51:34.375Z,27.30
2023-04-22T13:54:01.527Z,27.10
2023-04-22T13:56:29.133Z,27.00
2023-04-22T13:58:56.000Z,26.80
2023-04-22T14:01:23.072Z,26.90
2023-04-22T14:03:50.333Z,27.30
2023-04-22T14:06:17.239Z,28.00
2023-04-22T14:08:45.727Z,27.40
2023-04-22T14:11:12.913Z,27.00
2023-04-22T14:13:40.372Z,27.00
2023-04-22T14:16:09.662Z,27.10
2023-04-22T14:18:37.440Z,26.90
2023-04-22T14:21:05.949Z,26.40
2023-04-22T14:23:33.720Z,26.00
2023-04-22T14:26:02.033Z,26.00
2023-04-22T14:28:29.288Z,25.90
2023-04-22T14:30:56.480Z,25.80
2023-04-22T14:33:24.628Z,25.60
2023-04-22T14:35:51.913Z,25.70
2023-04-22T14:38:19.870Z,25.50
2023-04-22T14:40:47.400Z,25.40
2023-04-22T14:43:17.057Z,25.40
2023-04-22T14:45:45.349Z,26.00
2023-04-22T14:48:12.303Z,25.90
2023-04-22T14:50:39.434Z,26.30
2023-04-22T14:53:06.421Z,26.40
2023-04-22T14:55:34.137Z,26.40
2023-04-22T14:58:01.266Z,26.30
2023-04-22T15:00:29.621Z,26.00
2023-04-22T15:02:56.759Z,26.50
2023-04-22T15:05:24.221Z,26.70
2023-04-22T15:07:51.060Z,26.70
2023-04-22T15:10:18.530Z,27.10
2023-04-22T15:12:46.318Z,27.50
2023-04-22T15:15:13.754Z,27.80
2023-04-22T15:17:43.072Z,28.50
2023-04-22T15:20:10.829Z,29.00
2023-04-22T15:22:38.130Z,29.20
2023-04-22T15:25:05.833Z,29.30
2023-04-22T15:27:32.710Z,29.50
2023-04-22T15:29:59.752Z,29.50
2023-04-22T15:32:26.792Z,29.50
2023-04-22T15:34:55.140Z,29.80
2023-04-22T15:37:21.935Z,29.80
2023-04-22T15:39:48.806Z,29.50
2023-04-22T15:42:15.594Z,29.20
2023-04-22T15:44:42.610Z,28.70
2023-04-22T15:47:09.790Z,28.20
2023-04-22T15:49:36.776Z,28.00
2023-04-22T15:52:05.455Z,27.80
2023-04-22T15:54:32.457Z,27.60
2023-04-22T15:56:59.236Z,28.00
2023-04-22T15:59:26.089Z,28.10
2023-04-22T16:01:53.177Z,28.50
2023-04-22T16:04:20.305Z,29.10
2023-04-22T16:06:49.576Z,29.80
2023-04-22T16:09:18.914Z,31.10
2023-04-22T16:11:45.776Z,31.40
2023-04-22T16:14:12.662Z,32.00
2023-04-22T16:16:40.440Z,33.00
2023-04-22T16:19:07.705Z,33.00
2023-04-22T16:21:34.707Z,32.90
2023-04-22T16:24:01.586Z,32.80
2023-04-22T16:26:30.015Z,32.80
2023-04-22T16:28:56.852Z,33.00
2023-04-22T16:31:23.681Z,33.40
2023-04-22T16:33:50.847Z,34.00
2023-04-22T16:36:17.796Z,34.50
2023-04-22T16:38:44.587Z,34.80
2023-04-22T16:41:11.463Z,35.30
2023-04-22T16:43:41.084Z,35.50
2023-04-22T16:46:08.210Z,35.80
2023-04-22T16:48:35.297Z,36.20
2023-04-22T16:51:02.127Z,36.60
2023-04-22T16:56:09.753Z,36.80
2023-04-22T16:58:39.069Z,36.60
2023-04-22T17:01:06.013Z,36.60
2023-04-22T17:03:32.977Z,36.60
2023-04-22T17:05:59.777Z,36.70
2023-04-22T17:08:26.557Z,37.10
2023-04-22T17:10:53.300Z,37.70
2023-04-22T17:13:20.072Z,38.00
2023-04-22T17:15:48.204Z,38.30
2023-04-22T17:18:16.261Z,38.70
2023-04-22T17:20:43.344Z,39.10
2023-04-22T17:23:10.141Z,39.50
2023-04-22T17:25:36.930Z,40.00
2023-04-22T17:28:03.763Z,40.50
2023-04-22T17:30:30.656Z,40.80
2023-04-22T17:32:59.095Z,41.40
2023-04-22T17:35:25.988Z,41.60
2023-04-22T17:37:52.762Z,42.40
2023-04-22T17:40:19.632Z,42.60
2023-04-22T17:42:46.630Z,43.00
2023-04-22T17:45:13.616Z,43.50
2023-04-22T17:47:40.435Z,43.80
2023-04-22T17:50:09.384Z,44.20
2023-04-22T17:52:36.243Z,44.60
2023-04-22T17:55:03.228Z,45.30
2023-04-22T17:57:30.105Z,45.40
2023-04-22T17:59:56.899Z,45.90
2023-04-22T18:02:23.936Z,46.00
2023-04-22T18:04:50.875Z,46.30
2023-04-22T18:07:19.073Z,46.40
2023-04-22T18:09:45.842Z,46.50
2023-04-22T18:12:12.615Z,47.00
2023-04-22T18:14:39.428Z,47.20
2023-04-22T18:17:06.362Z,47.70
2023-04-22T18:19:33.109Z,47.80
2023-04-22T18:22:00.787Z,48.20
2023-04-22T18:24:28.965Z,48.50
2023-04-22T18:26:55.760Z,48.60
2023-04-22T18:29:22.538Z,48.80
2023-04-22T18:31:49.344Z,49.00
2023-04-22T18:34:16.175Z,49.10
2023-04-22T18:36:42.937Z,49.30
2023-04-22T18:39:09.790Z,49.60
2023-04-22T18:41:37.948Z,49.80
2023-04-22T18:44:04.787Z,50.00
2023-04-22T18:46:31.587Z,50.00
2023-04-22T18:48:58.362Z,50.20
2023-04-22T18:51:25.155Z,50.50
2023-04-22T18:53:51.935Z,51.00
2023-04-22T18:56:18.742Z,50.90
2023-04-22T18:58:47.062Z,51.10
2023-04-22T19:01:14.097Z,51.00
2023-04-22T19:03:41.227Z,51.10
2023-04-22T19:06:08.239Z,51.30
2023-04-22T19:08:35.094Z,51.20
2023-04-22T19:11:01.918Z,51.10
2023-04-22T19:13:30.154Z,51.00
2023-04-22T19:15:58.684Z,51.10
2023-04-22T19:18:25.764Z,51.40
2023-04-22T19:20:52.588Z,51.40
2023-04-22T19:23:19.443Z,51.40
2023-04-22T19:25:46.277Z,51.40
2023-04-22T19:28:13.064Z,51.70
2023-04-22T19:30:39.879Z,51.80
2023-04-22T19:33:08.258Z,52.00
2023-04-22T19:35:35.012Z,52.10
2023-04-22T19:38:01.753Z,52.30
2023-04-22T19:40:28.868Z,52.70
2023-04-22T19:42:55.629Z,53.00
2023-04-22T19:45:22.573Z,53.50
2023-04-22T19:47:49.956Z,53.90
2023-04-22T19:50:18.870Z,55.00
2023-04-22T19:52:46.380Z,57.20
2023-04-22T19:55:13.589Z,57.20
2023-04-22T19:57:40.613Z,57.50
2023-04-22T20:00:09.344Z,57.90
2023-04-22T20:02:37.089Z,57.70
2023-04-22T20:05:05.147Z,57.90
2023-04-22T20:07:33.844Z,58.00
2023-04-22T20:10:02.157Z,58.30
2023-04-22T20:12:29.411Z,58.20
2023-04-22T20:14:56.699Z,58.20
2023-04-22T20:17:24.081Z,58.40
2023-04-22T20:19:51.170Z,58.50
2023-04-22T20:22:18.898Z,58.90
2023-04-22T20:24:49.397Z,59.00
2023-04-22T20:27:16.515Z,59.40
2023-04-22T20:29:44.912Z,59.50
2023-04-22T20:32:11.967Z,59.40
2023-04-22T20:34:39.267Z,59.80
2023-04-22T20:37:06.544Z,59.90
2023-04-22T20:39:34.831Z,60.20
2023-04-22T20:42:03.420Z,60.60
2023-04-22T20:44:30.147Z,60.80
2023-04-22T20:46:56.911Z,61.10
2023-04-22T20:49:23.729Z,61.20
2023-04-22T20:51:50.483Z,61.40
2023-04-22T20:54:27.725Z,61.70
2023-04-22T20:56:55.048Z,62.00
2023-04-22T20:59:23.197Z,62.20
2023-04-22T21:01:51.203Z,62.40
2023-04-22T21:04:18.312Z,62.60
2023-04-22T21:06:48.481Z,62.70
2023-04-22T21:09:15.993Z,63.10
2023-04-22T21:11:43.361Z,63.30
2023-04-22T21:14:11.421Z,63.50
2023-04-22T21:16:42.702Z,63.70
2023-04-22T21:19:09.702Z,63.80
2023-04-22T21:21:37.531Z,64.50
2023-04-22T21:24:05.106Z,64.80
2023-04-22T21:26:32.352Z,65.10
2023-04-22T21:28:59.484Z,65.20
2023-04-22T21:31:26.333Z,65.40
2023-04-22T21:33:54.901Z,65.90
2023-04-22T21:36:21.630Z,65.90
2023-04-22T21:38:48.774Z,66.00
2023-04-22T21:41:15.687Z,66.10
2023-04-22T21:43:42.459Z,66.20
2023-04-22T21:46:09.445Z,66.50
2023-04-22T21:48:36.212Z,66.60
2023-04-22T21:51:04.512Z,66.80
2023-04-22T21:53:31.308Z,67.00
2023-04-22T21:55:58.256Z,67.20
2023-04-22T21:58:25.059Z,68.10
2023-04-22T22:00:51.901Z,67.70
2023-04-22T22:03:18.768Z,68.00
2023-04-22T22:05:45.633Z,68.20
2023-04-22T22:08:13.756Z,68.50
2023-04-22T22:10:40.544Z,68.90
2023-04-22T22:13:07.277Z,69.00
2023-04-22T22:15:34.076Z,69.30
2023-04-22T22:18:00.911Z,69.30
2023-04-22T22:20:27.851Z,69.20
2023-04-22T22:22:54.635Z,69.30
2023-04-22T22:25:22.880Z,69.40
2023-04-22T22:27:49.753Z,69.30
2023-04-22T22:30:17.376Z,69.40
2023-04-22T22:32:44.535Z,69.50
2023-04-22T22:35:11.517Z,69.60
2023-04-22T22:37:38.448Z,69.40
2023-04-22T22:40:06.514Z,69.20
2023-04-22T22:42:34.627Z,69.20
2023-04-22T22:45:01.482Z,69.00
2023-04-22T22:47:28.377Z,69.20
2023-04-22T22:49:55.195Z,69.00
2023-04-22T22:52:22.309Z,69.20
2023-04-22T22:54:49.634Z,69.50
2023-04-22T22:57:16.637Z,69.30
2023-04-22T22:59:44.917Z,69.60
2023-04-22T23:02:12.298Z,69.60
2023-04-22T23:04:40.658Z,69.60
2023-04-22T23:07:07.995Z,69.70
2023-04-22T23:09:34.942Z,69.50
2023-04-22T23:12:01.888Z,69.40
2023-04-22T23:14:28.777Z,69.60
2023-04-22T23:16:57.286Z,69.80
2023-04-22T23:19:25.237Z,69.70
2023-04-22T23:21:54.117Z,69.80
2023-04-22T23:24:21.440Z,70.00
2023-04-22T23:26:48.664Z,70.00
2023-04-22T23:29:16.041Z,70.20
2023-04-22T23:31:44.014Z,70.40
2023-04-22T23:34:14.939Z,70.50
2023-04-22T23:36:43.011Z,70.50
2023-04-22T23:39:09.919Z,70.70
2023-04-22T23:41:36.814Z,70.80
2023-04-22T23:44:03.644Z,70.70
2023-04-22T23:46:30.577Z,71.40
2023-04-22T23:48:57.515Z,71.00
2023-04-22T23:51:25.669Z,71.20
2023-04-22T23:53:52.484Z,71.20
2023-04-22T23:56:19.762Z,71.40
2023-04-22T23:58:47.166Z,71.50
